NCAR-RAP Real-Time Weather Data

Output produced by METARs form (30 April 2017  15:04 UTC)
found at http://weather.rap.ucar.edu/surface/
 
Conditions at: KFPR observed 30 April 2017  14:53 UTC
Temperature: 28.3°C (83°F)
Dewpoint: 21.7°C (71°F) [RH = 67%]
Pressure (altimeter): 30.13 inches Hg (1020.4 mb)
[Sea-level pressure: 1020.3 mb]
Winds: from the SE (140 degrees) at 21 MPH (18 knots; 9.4 m/s)
Visibility: 10 or more miles (16+ km)
Ceiling: 3200 feet AGL
Clouds: scattered clouds at 2100 feet AGL
broken clouds at 3200 feet AGL
Present Weather: automated observation with no human augmentation;
there may or may not be significant weather present at this time
KFPR 301453Z AUTO 14018KT 10SM SCT021 BKN032 28/22 A3013 RMK AO2 PK WND 13027/1442 SLP203 T02830217 58001

Conditions at: KFPR observed 30 April 2017  13:53 UTC
Temperature: 28.9°C (84°F)
Dewpoint: 21.7°C (71°F) [RH = 65%]
Pressure (altimeter): 30.14 inches Hg (1020.7 mb)
[Sea-level pressure: 1020.4 mb]
Winds: from the ESE (120 degrees) at 20 MPH (17 knots; 8.8 m/s)
gusting to 28 MPH (24 knots; 12.5 m/s)
Visibility: 10 or more miles (16+ km)
Ceiling: 3300 feet AGL
Clouds: few clouds at 2300 feet AGL
broken clouds at 3300 feet AGL
Present Weather: automated observation with no human augmentation;
there may or may not be significant weather present at this time
KFPR 301353Z AUTO 12017G24KT 10SM FEW023 BKN033 29/22 A3014 RMK AO2 SLP204 T02890217

Conditions at: KFPR observed 30 April 2017  13:06 UTC
Temperature: 27.8°C (82°F)
Dewpoint: 21.7°C (71°F) [RH = 69%]
Pressure (altimeter): 30.14 inches Hg (1020.7 mb)
Winds: from the SE (130 degrees) at 18 MPH (16 knots; 8.3 m/s)
Visibility: 10 or more miles (16+ km)
Ceiling: 3100 feet AGL
Clouds: few clouds at 2100 feet AGL
broken clouds at 3100 feet AGL
Present Weather: automated observation with no human augmentation;
there may or may not be significant weather present at this time
KFPR 301306Z AUTO 13016KT 10SM FEW021 BKN031 28/22 A3014 RMK AO2 T02780217

Conditions at: KFPR observed 30 April 2017  12:53 UTC
Temperature: 27.2°C (81°F)
Dewpoint: 21.7°C (71°F) [RH = 72%]
Pressure (altimeter): 30.14 inches Hg (1020.7 mb)
[Sea-level pressure: 1020.5 mb]
Winds: from the SE (130 degrees) at 21 MPH (18 knots; 9.4 m/s)
Visibility: 10 or more miles (16+ km)
Ceiling: 2900 feet AGL
Clouds: few clouds at 2300 feet AGL
broken clouds at 2900 feet AGL
Present Weather: automated observation with no human augmentation;
there may or may not be significant weather present at this time
KFPR 301253Z AUTO 13018KT 10SM FEW023 BKN029 27/22 A3014 RMK AO2 SLP205 T02720217

Conditions at: KFPR observed 30 April 2017  11:53 UTC
Temperature: 26.1°C (79°F)
Dewpoint: 21.7°C (71°F) [RH = 77%]
Pressure (altimeter): 30.14 inches Hg (1020.7 mb)
[Sea-level pressure: 1020.4 mb]
Winds: from the SE (130 degrees) at 16 MPH (14 knots; 7.3 m/s)
Visibility: 10 or more miles (16+ km)
Ceiling: 2800 feet AGL
Clouds: scattered clouds at 2400 feet AGL
broken clouds at 2800 feet AGL
Present Weather: automated observation with no human augmentation;
there may or may not be significant weather present at this time
KFPR 301153Z AUTO 13014KT 10SM SCT024 BKN028 26/22 A3014 RMK AO2 SLP204 T02610217 10267 20250 53014

Conditions at: KFPR observed 30 April 2017  11:21 UTC
Temperature: 25.6°C (78°F)
Dewpoint: 21.1°C (70°F) [RH = 76%]
Pressure (altimeter): 30.13 inches Hg (1020.4 mb)
Winds: from the SE (130 degrees) at 15 MPH (13 knots; 6.8 m/s)
Visibility: 10 or more miles (16+ km)
Ceiling: 3200 feet AGL
Clouds: few clouds at 2100 feet AGL
broken clouds at 3200 feet AGL
broken clouds at 4400 feet AGL
Present Weather: automated observation with no human augmentation;
there may or may not be significant weather present at this time
KFPR 301121Z AUTO 13013KT 10SM FEW021 BKN032 BKN044 26/21 A3013 RMK AO2 T02560211

Conditions at: KFPR observed 30 April 2017  10:53 UTC
Temperature: 25.6°C (78°F)
Dewpoint: 21.7°C (71°F) [RH = 79%]
Pressure (altimeter): 30.12 inches Hg (1020.1 mb)
[Sea-level pressure: 1019.9 mb]
Winds: from the SE (130 degrees) at 14 MPH (12 knots; 6.2 m/s)
Visibility: 10 or more miles (16+ km)
Ceiling: 2800 feet AGL
Clouds: few clouds at 2100 feet AGL
broken clouds at 2800 feet AGL
Present Weather: automated observation with no human augmentation;
there may or may not be significant weather present at this time
KFPR 301053Z AUTO 13012KT 10SM FEW021 BKN028 26/22 A3012 RMK AO2 SLP199 T02560217

Conditions at: KFPR observed 30 April 2017  09:53 UTC
Temperature: 25.6°C (78°F)
Dewpoint: 21.1°C (70°F) [RH = 76%]
Pressure (altimeter): 30.10 inches Hg (1019.4 mb)
[Sea-level pressure: 1019.2 mb]
Winds: from the SE (140 degrees) at 16 MPH (14 knots; 7.3 m/s)
gusting to 23 MPH (20 knots; 10.4 m/s)
Visibility: 10 or more miles (16+ km)
Ceiling: at least 12,000 feet AGL
Clouds: few clouds at 2500 feet AGL
few clouds at 3200 feet AGL
Present Weather: automated observation with no human augmentation;
there may or may not be significant weather present at this time
KFPR 300953Z AUTO 14014G20KT 10SM FEW025 FEW032 26/21 A3010 RMK AO2 SLP192 T02560211

Conditions at: KFPR observed 30 April 2017  09:03 UTC
Temperature: 25.6°C (78°F)
Dewpoint: 21.1°C (70°F) [RH = 76%]
Pressure (altimeter): 30.10 inches Hg (1019.4 mb)
Winds: from the SE (130 degrees) at 16 MPH (14 knots; 7.3 m/s)
Visibility: 10 or more miles (16+ km)
Ceiling: at least 12,000 feet AGL
Clouds: few clouds at 2200 feet AGL
scattered clouds at 2800 feet AGL
Present Weather: automated observation with no human augmentation;
there may or may not be significant weather present at this time
KFPR 300903Z AUTO 13014KT 10SM FEW022 SCT028 26/21 A3010 RMK AO2 T02560211

Conditions at: KFPR observed 30 April 2017  08:53 UTC
Temperature: 25.6°C (78°F)
Dewpoint: 21.1°C (70°F) [RH = 76%]
Pressure (altimeter): 30.10 inches Hg (1019.4 mb)
[Sea-level pressure: 1019.0 mb]
Winds: from the SE (140 degrees) at 15 MPH (13 knots; 6.8 m/s)
gusting to 24 MPH (21 knots; 10.9 m/s)
Visibility: 10 or more miles (16+ km)
Ceiling: 2800 feet AGL
Clouds: scattered clouds at 2200 feet AGL
broken clouds at 2800 feet AGL
Present Weather: automated observation with no human augmentation;
there may or may not be significant weather present at this time
KFPR 300853Z AUTO 14013G21KT 10SM SCT022 BKN028 26/21 A3010 RMK AO2 SLP190 T02560211 55008

Conditions at: KFPR observed 30 April 2017  08:39 UTC
Temperature: 25.6°C (78°F)
Dewpoint: 21.7°C (71°F) [RH = 79%]
Pressure (altimeter): 30.09 inches Hg (1019.0 mb)
Winds: from the SE (130 degrees) at 14 MPH (12 knots; 6.2 m/s)
Visibility: 10 or more miles (16+ km)
Ceiling: 2200 feet AGL
Clouds: broken clouds at 2200 feet AGL
overcast cloud deck at 2900 feet AGL
Present Weather: no significant weather observed at this time
KFPR 300839Z 13012KT 10SM BKN022 OVC029 26/22 A3009 RMK AO2 T02560217

Conditions at: KFPR observed 30 April 2017  07:53 UTC
Temperature: 25.6°C (78°F)
Dewpoint: 21.1°C (70°F) [RH = 76%]
Pressure (altimeter): 30.09 inches Hg (1019.0 mb)
[Sea-level pressure: 1018.9 mb]
Winds: from the SE (130 degrees) at 16 MPH (14 knots; 7.3 m/s)
Visibility: 10 or more miles (16+ km)
Ceiling: at least 12,000 feet AGL
Clouds: sky clear below 12,000 feet AGL
Present Weather: no significant weather observed at this time
KFPR 300753Z 13014KT 10SM CLR 26/21 A3009 RMK AO2 SLP189 T02560211

Conditions at: KFPR observed 30 April 2017  06:53 UTC
Temperature: 25.6°C (78°F)
Dewpoint: 21.1°C (70°F) [RH = 76%]
Pressure (altimeter): 30.11 inches Hg (1019.7 mb)
[Sea-level pressure: 1019.4 mb]
Winds: from the SE (140 degrees) at 17 MPH (15 knots; 7.8 m/s)
gusting to 25 MPH (22 knots; 11.4 m/s)
Visibility: 10 or more miles (16+ km)
Ceiling: at least 12,000 feet AGL
Clouds: sky clear below 12,000 feet AGL
Present Weather: no significant weather observed at this time
KFPR 300653Z 14015G22KT 10SM CLR 26/21 A3011 RMK AO2 SLP194 T02560211

Conditions at: KFPR observed 30 April 2017  06:35 UTC
Temperature: 26.1°C (79°F)
Dewpoint: 21.1°C (70°F) [RH = 74%]
Pressure (altimeter): 30.11 inches Hg (1019.7 mb)
Winds: from the SE (140 degrees) at 15 MPH (13 knots; 6.8 m/s)
gusting to 24 MPH (21 knots; 10.9 m/s)
Visibility: 10 or more miles (16+ km)
Ceiling: at least 12,000 feet AGL
Clouds: few clouds at 2200 feet AGL
Present Weather: no significant weather observed at this time
KFPR 300635Z 14013G21KT 10SM FEW022 26/21 A3011 RMK AO2 T02610211

Conditions at: KFPR observed 30 April 2017  06:26 UTC
Temperature: 26.1°C (79°F)
Dewpoint: 21.1°C (70°F) [RH = 74%]
Pressure (altimeter): 30.11 inches Hg (1019.7 mb)
Winds: from the SE (130 degrees) at 16 MPH (14 knots; 7.3 m/s)
Visibility: 10 or more miles (16+ km)
Ceiling: 2800 feet AGL
Clouds: scattered clouds at 2200 feet AGL
broken clouds at 2800 feet AGL
Present Weather: no significant weather observed at this time
KFPR 300626Z 13014KT 10SM SCT022 BKN028 26/21 A3011 RMK AO2 T02610211

Conditions at: KFPR observed 30 April 2017  06:14 UTC
Temperature: 25.6°C (78°F)
Dewpoint: 21.7°C (71°F) [RH = 79%]
Pressure (altimeter): 30.12 inches Hg (1020.1 mb)
Winds: from the SE (130 degrees) at 17 MPH (15 knots; 7.8 m/s)
Visibility: 10 or more miles (16+ km)
Ceiling: at least 12,000 feet AGL
Clouds: scattered clouds at 2500 feet AGL
Present Weather: no significant weather observed at this time
KFPR 300614Z 13015KT 10SM SCT025 26/22 A3012 RMK AO2 T02560217

Conditions at: KFPR observed 30 April 2017  05:53 UTC
Temperature: 26.1°C (79°F)
Dewpoint: 21.7°C (71°F) [RH = 77%]
Pressure (altimeter): 30.12 inches Hg (1020.1 mb)
[Sea-level pressure: 1019.8 mb]
Winds: from the SE (130 degrees) at 15 MPH (13 knots; 6.8 m/s)
Visibility: 10 or more miles (16+ km)
Ceiling: 2900 feet AGL
Clouds: scattered clouds at 2200 feet AGL
broken clouds at 2900 feet AGL
Present Weather: no significant weather observed at this time
KFPR 300553Z 13013KT 10SM SCT022 BKN029 26/22 A3012 RMK AO2 SLP198 T02610217 10267 20256 58006

Conditions at: KFPR observed 30 April 2017  05:44 UTC
Temperature: 26.1°C (79°F)
Dewpoint: 21.7°C (71°F) [RH = 77%]
Pressure (altimeter): 30.12 inches Hg (1020.1 mb)
Winds: from the SE (130 degrees) at 20 MPH (17 knots; 8.8 m/s)
gusting to 24 MPH (21 knots; 10.9 m/s)
Visibility: 10 or more miles (16+ km)
Ceiling: 2700 feet AGL
Clouds: scattered clouds at 2200 feet AGL
broken clouds at 2700 feet AGL
Present Weather: no significant weather observed at this time
KFPR 300544Z 13017G21KT 10SM SCT022 BKN027 26/22 A3012 RMK AO2 T02610217

Conditions at: KFPR observed 30 April 2017  04:53 UTC
Temperature: 26.1°C (79°F)
Dewpoint: 21.7°C (71°F) [RH = 77%]
Pressure (altimeter): 30.12 inches Hg (1020.1 mb)
[Sea-level pressure: 1019.9 mb]
Winds: from the SE (130 degrees) at 17 MPH (15 knots; 7.8 m/s)
Visibility: 10 or more miles (16+ km)
Ceiling: at least 12,000 feet AGL
Clouds: sky clear below 12,000 feet AGL
Present Weather: no significant weather observed at this time
KFPR 300453Z 13015KT 10SM CLR 26/22 A3012 RMK AO2 SLP199 T02610217 403060250

Conditions at: KFPR observed 30 April 2017  04:33 UTC
Temperature: 26.1°C (79°F)
Dewpoint: 21.7°C (71°F) [RH = 77%]
Pressure (altimeter): 30.13 inches Hg (1020.4 mb)
Winds: from the SE (130 degrees) at 16 MPH (14 knots; 7.3 m/s)
Visibility: 10 or more miles (16+ km)
Ceiling: at least 12,000 feet AGL
Clouds: few clouds at 2200 feet AGL
scattered clouds at 2700 feet AGL
scattered clouds at 3400 feet AGL
Present Weather: no significant weather observed at this time
KFPR 300433Z 13014KT 10SM FEW022 SCT027 SCT034 26/22 A3013 RMK AO2 T02610217

Conditions at: KFPR observed 30 April 2017  04:19 UTC
Temperature: 26.1°C (79°F)
Dewpoint: 22.2°C (72°F) [RH = 79%]
Pressure (altimeter): 30.14 inches Hg (1020.7 mb)
Winds: from the SE (140 degrees) at 14 MPH (12 knots; 6.2 m/s)
Visibility: 10 or more miles (16+ km)
Ceiling: 2100 feet AGL
Clouds: broken clouds at 2100 feet AGL
broken clouds at 3200 feet AGL
Present Weather: no significant weather observed at this time
KFPR 300419Z 14012KT 10SM BKN021 BKN032 26/22 A3014 RMK AO2 T02610222

Conditions at: KFPR observed 30 April 2017  03:53 UTC
Temperature: 25.6°C (78°F)
Dewpoint: 21.1°C (70°F) [RH = 76%]
Pressure (altimeter): 30.14 inches Hg (1020.7 mb)
[Sea-level pressure: 1020.4 mb]
Winds: from the ESE (120 degrees) at 12 MPH (10 knots; 5.2 m/s)
Visibility: 10 or more miles (16+ km)
Ceiling: at least 12,000 feet AGL
Clouds: few clouds at 1800 feet AGL
scattered clouds at 2500 feet AGL
Present Weather: no significant weather observed at this time
KFPR 300353Z 12010KT 10SM FEW018 SCT025 26/21 A3014 RMK AO2 SLP204 T02560211

Conditions at: KFPR observed 30 April 2017  03:22 UTC
Temperature: 26.1°C (79°F)
Dewpoint: 22.8°C (73°F) [RH = 82%]
Pressure (altimeter): 30.13 inches Hg (1020.4 mb)
Winds: from the ESE (110 degrees) at 16 MPH (14 knots; 7.3 m/s)
Visibility: 10 or more miles (16+ km)
Ceiling: 2300 feet AGL
Clouds: scattered clouds at 1600 feet AGL
broken clouds at 2300 feet AGL
broken clouds at 3100 feet AGL
Present Weather: no significant weather observed at this time
KFPR 300322Z 11014KT 10SM SCT016 BKN023 BKN031 26/23 A3013 RMK AO2 T02610228

Conditions at: KFPR observed 30 April 2017  02:53 UTC
Temperature: 26.1°C (79°F)
Dewpoint: 22.2°C (72°F) [RH = 79%]
Pressure (altimeter): 30.13 inches Hg (1020.4 mb)
[Sea-level pressure: 1020.2 mb]
Winds: from the ESE (120 degrees) at 12 MPH (10 knots; 5.2 m/s)
Visibility: 10 or more miles (16+ km)
Ceiling: at least 12,000 feet AGL
Clouds: few clouds at 2700 feet AGL
Present Weather: no significant weather observed at this time
KFPR 300253Z 12010KT 10SM FEW027 26/22 A3013 RMK AO2 SLP202 T02610222 50006

Conditions at: KFPR observed 30 April 2017  01:53 UTC
Temperature: 26.1°C (79°F)
Dewpoint: 23.3°C (74°F) [RH = 85%]
Pressure (altimeter): 30.13 inches Hg (1020.4 mb)
[Sea-level pressure: 1020.3 mb]
Winds: from the E (100 degrees) at 12 MPH (10 knots; 5.2 m/s)
Visibility: 10 or more miles (16+ km)
Ceiling: at least 12,000 feet AGL
Clouds: few clouds at 2400 feet AGL
few clouds at 2900 feet AGL
Present Weather: no significant weather observed at this time
KFPR 300153Z 10010KT 10SM FEW024 FEW029 26/23 A3013 RMK AO2 SLP203 T02610233

Conditions at: KFPR observed 30 April 2017  01:33 UTC
Temperature: 26.1°C (79°F)
Dewpoint: 22.8°C (73°F) [RH = 82%]
Pressure (altimeter): 30.13 inches Hg (1020.4 mb)
Winds: from the E (100 degrees) at 10 MPH (9 knots; 4.7 m/s)
Visibility: 10 or more miles (16+ km)
Ceiling: at least 12,000 feet AGL
Clouds: few clouds at 2100 feet AGL
scattered clouds at 2900 feet AGL
scattered clouds at 3400 feet AGL
Present Weather: no significant weather observed at this time
KFPR 300133Z 10009KT 10SM FEW021 SCT029 SCT034 26/23 A3013 RMK AO2 T02610228

Conditions at: KFPR observed 30 April 2017  01:08 UTC
Temperature: 26.1°C (79°F)
Dewpoint: 22.8°C (73°F) [RH = 82%]
Pressure (altimeter): 30.13 inches Hg (1020.4 mb)
Winds: from the ESE (120 degrees) at 10 MPH (9 knots; 4.7 m/s)
Visibility: 10 or more miles (16+ km)
Ceiling: 2900 feet AGL
Clouds: scattered clouds at 1800 feet AGL
scattered clouds at 2300 feet AGL
broken clouds at 2900 feet AGL
Present Weather: no significant weather observed at this time
KFPR 300108Z 12009KT 10SM SCT018 SCT023 BKN029 26/23 A3013 RMK AO2 T02610228

Conditions at: KFPR observed 30 April 2017  00:53 UTC
Temperature: 26.1°C (79°F)
Dewpoint: 22.2°C (72°F) [RH = 79%]
Pressure (altimeter): 30.12 inches Hg (1020.1 mb)
[Sea-level pressure: 1019.9 mb]
Winds: from the ESE (120 degrees) at 7 MPH (6 knots; 3.1 m/s)
Visibility: 10 or more miles (16+ km)
Ceiling: at least 12,000 feet AGL
Clouds: few clouds at 2700 feet AGL
Present Weather: no significant weather observed at this time
KFPR 300053Z 12006KT 10SM FEW027 26/22 A3012 RMK AO2 SLP199 T02610222

Conditions at: KFPR observed 29 April 2017  23:53 UTC
Temperature: 26.7°C (80°F)
Dewpoint: 22.8°C (73°F) [RH = 79%]
Pressure (altimeter): 30.11 inches Hg (1019.7 mb)
[Sea-level pressure: 1019.6 mb]
Winds: from the ESE (110 degrees) at 14 MPH (12 knots; 6.2 m/s)
Visibility: 10 or more miles (16+ km)
Ceiling: at least 12,000 feet AGL
Clouds: few clouds at 2300 feet AGL
scattered clouds at 3000 feet AGL
Present Weather: no significant weather observed at this time
KFPR 292353Z 11012KT 10SM FEW023 SCT030 27/23 A3011 RMK AO2 SLP196 T02670228 10306 20267 50002

Conditions at: KFPR observed 29 April 2017  22:53 UTC
Temperature: 27.2°C (81°F)
Dewpoint: 21.7°C (71°F) [RH = 72%]
Pressure (altimeter): 30.11 inches Hg (1019.7 mb)
[Sea-level pressure: 1019.7 mb]
Winds: from the ESE (120 degrees) at 13 MPH (11 knots; 5.7 m/s)
Visibility: 10 or more miles (16+ km)
Ceiling: at least 12,000 feet AGL
Clouds: few clouds at 2200 feet AGL
Present Weather: no significant weather observed at this time
KFPR 292253Z 12011KT 10SM FEW022 27/22 A3011 RMK AO2 SLP197 T02720217

Conditions at: KFPR observed 29 April 2017  21:53 UTC
Temperature: 28.3°C (83°F)
Dewpoint: 21.1°C (70°F) [RH = 65%]
Pressure (altimeter): 30.11 inches Hg (1019.7 mb)
[Sea-level pressure: 1019.5 mb]
Winds: from the ESE (110 degrees) at 17 MPH (15 knots; 7.8 m/s)
Visibility: 10 or more miles (16+ km)
Ceiling: at least 12,000 feet AGL
Clouds: few clouds at 2500 feet AGL
Present Weather: no significant weather observed at this time
KFPR 292153Z 11015KT 10SM FEW025 28/21 A3011 RMK AO2 SLP195 T02830211

Conditions at: KFPR observed 29 April 2017  20:53 UTC
Temperature: 29.4°C (85°F)
Dewpoint: 21.1°C (70°F) [RH = 61%]
Pressure (altimeter): 30.11 inches Hg (1019.7 mb)
[Sea-level pressure: 1019.4 mb]
Winds: from the SE (130 degrees) at 18 MPH (16 knots; 8.3 m/s)
gusting to 26 MPH (23 knots; 12.0 m/s)
Visibility: 10 or more miles (16+ km)
Ceiling: at least 12,000 feet AGL
Clouds: scattered clouds at 2700 feet AGL
scattered clouds at 3200 feet AGL
Present Weather: no significant weather observed at this time
KFPR 292053Z 13016G23KT 10SM SCT027 SCT032 29/21 A3011 RMK AO2 SLP194 T02940211 58017

Conditions at: KFPR observed 29 April 2017  19:53 UTC
Temperature: 29.4°C (85°F)
Dewpoint: 21.1°C (70°F) [RH = 61%]
Pressure (altimeter): 30.13 inches Hg (1020.4 mb)
[Sea-level pressure: 1020.1 mb]
Winds: from the ESE (110 degrees) at 18 MPH (16 knots; 8.3 m/s)
Visibility: 10 or more miles (16+ km)
Ceiling: at least 12,000 feet AGL
Clouds: scattered clouds at 2800 feet AGL
Present Weather: no significant weather observed at this time
KFPR 291953Z 11016KT 10SM SCT028 29/21 A3013 RMK AO2 SLP201 T02940211

Conditions at: KFPR observed 29 April 2017  18:53 UTC
Temperature: 30.0°C (86°F)
Dewpoint: 21.1°C (70°F) [RH = 59%]
Pressure (altimeter): 30.14 inches Hg (1020.7 mb)
[Sea-level pressure: 1020.7 mb]
Winds: from the SE (130 degrees) at 20 MPH (17 knots; 8.8 m/s)
Visibility: 10 or more miles (16+ km)
Ceiling: at least 12,000 feet AGL
Clouds: scattered clouds at 2300 feet AGL
Present Weather: no significant weather observed at this time
KFPR 291853Z 13017KT 10SM SCT023 30/21 A3014 RMK AO2 SLP207 T03000211

Conditions at: KFPR observed 29 April 2017  17:53 UTC
Temperature: 30.0°C (86°F)
Dewpoint: 21.7°C (71°F) [RH = 61%]
Pressure (altimeter): 30.16 inches Hg (1021.4 mb)
[Sea-level pressure: 1021.1 mb]
Winds: from the ESE (120 degrees) at 17 MPH (15 knots; 7.8 m/s)
Visibility: 10 or more miles (16+ km)
Ceiling: at least 12,000 feet AGL
Clouds: scattered clouds at 2300 feet AGL
Present Weather: no significant weather observed at this time
KFPR 291753Z 12015KT 10SM SCT023 30/22 A3016 RMK AO2 SLP211 T03000217 10306 20267 58005

Conditions at: KFPR observed 29 April 2017  16:53 UTC
Temperature: 30.0°C (86°F)
Dewpoint: 21.7°C (71°F) [RH = 61%]
Pressure (altimeter): 30.16 inches Hg (1021.4 mb)
[Sea-level pressure: 1021.3 mb]
Winds: from the ESE (120 degrees) at 20 MPH (17 knots; 8.8 m/s)
Visibility: 10 or more miles (16+ km)
Ceiling: at least 12,000 feet AGL
Clouds: sky clear below 12,000 feet AGL
Present Weather: no significant weather observed at this time
KFPR 291653Z 12017KT 10SM CLR 30/22 A3016 RMK AO2 SLP213 T03000217

Conditions at: KFPR observed 29 April 2017  15:53 UTC
Temperature: 29.4°C (85°F)
Dewpoint: 20.6°C (69°F) [RH = 59%]
Pressure (altimeter): 30.17 inches Hg (1021.8 mb)
[Sea-level pressure: 1021.6 mb]
Winds: from the ESE (120 degrees) at 20 MPH (17 knots; 8.8 m/s)
Visibility: 10 or more miles (16+ km)
Ceiling: at least 12,000 feet AGL
Clouds: sky clear below 12,000 feet AGL
Present Weather: no significant weather observed at this time
KFPR 291553Z 12017KT 10SM CLR 29/21 A3017 RMK AO2 SLP216 T02940206

Conditions at: KFPR observed 29 April 2017  14:53 UTC
Temperature: 29.4°C (85°F)
Dewpoint: 21.1°C (70°F) [RH = 61%]
Pressure (altimeter): 30.17 inches Hg (1021.8 mb)
[Sea-level pressure: 1021.7 mb]
Winds: from the ESE (120 degrees) at 22 MPH (19 knots; 9.9 m/s)
gusting to 28 MPH (24 knots; 12.5 m/s)
Visibility: 10 or more miles (16+ km)
Ceiling: at least 12,000 feet AGL
Clouds: sky clear below 12,000 feet AGL
Present Weather: no significant weather observed at this time
KFPR 291453Z 12019G24KT 10SM CLR 29/21 A3017 RMK AO2 SLP217 T02940211 53005

Conditions at: KFPR observed 29 April 2017  13:53 UTC
Temperature: 28.9°C (84°F)
Dewpoint: 21.1°C (70°F) [RH = 63%]
Pressure (altimeter): 30.17 inches Hg (1021.8 mb)
[Sea-level pressure: 1021.5 mb]
Winds: from the ESE (120 degrees) at 18 MPH (16 knots; 8.3 m/s)
gusting to 25 MPH (22 knots; 11.4 m/s)
Visibility: 10 or more miles (16+ km)
Ceiling: at least 12,000 feet AGL
Clouds: sky clear below 12,000 feet AGL
Present Weather: no significant weather observed at this time
KFPR 291353Z 12016G22KT 10SM CLR 29/21 A3017 RMK AO2 SLP215 T02890211

Conditions at: KFPR observed 29 April 2017  12:53 UTC
Temperature: 27.8°C (82°F)
Dewpoint: 21.7°C (71°F) [RH = 69%]
Pressure (altimeter): 30.16 inches Hg (1021.4 mb)
[Sea-level pressure: 1021.2 mb]
Winds: from the SE (130 degrees) at 18 MPH (16 knots; 8.3 m/s)
Visibility: 10 or more miles (16+ km)
Ceiling: at least 12,000 feet AGL
Clouds: scattered clouds at 2200 feet AGL
Present Weather: no significant weather observed at this time
KFPR 291253Z 13016KT 10SM SCT022 28/22 A3016 RMK AO2 SLP212 T02780217

Conditions at: KFPR observed 29 April 2017  11:53 UTC
Temperature: 26.7°C (80°F)
Dewpoint: 21.7°C (71°F) [RH = 74%]
Pressure (altimeter): 30.16 inches Hg (1021.4 mb)
[Sea-level pressure: 1021.1 mb]
Winds: from the SE (130 degrees) at 13 MPH (11 knots; 5.7 m/s)
Visibility: 10 or more miles (16+ km)
Ceiling: at least 12,000 feet AGL
Clouds: sky clear below 12,000 feet AGL
Present Weather: no significant weather observed at this time
KFPR 291153Z 13011KT 10SM CLR 27/22 A3016 RMK AO2 SLP211 T02670217 10267 20250 53016

Conditions at: KFPR observed 29 April 2017  10:53 UTC
Temperature: 25.6°C (78°F)
Dewpoint: 21.7°C (71°F) [RH = 79%]
Pressure (altimeter): 30.13 inches Hg (1020.4 mb)
[Sea-level pressure: 1020.2 mb]
Winds: from the SE (130 degrees) at 12 MPH (10 knots; 5.2 m/s)
Visibility: 10 or more miles (16+ km)
Ceiling: at least 12,000 feet AGL
Clouds: sky clear below 12,000 feet AGL
Present Weather: automated observation with no human augmentation;
there may or may not be significant weather present at this time
KFPR 291053Z AUTO 13010KT 10SM CLR 26/22 A3013 RMK AO2 SLP202 T02560217

Conditions at: KFPR observed 29 April 2017  09:53 UTC
Temperature: 25.6°C (78°F)
Dewpoint: 21.7°C (71°F) [RH = 79%]
Pressure (altimeter): 30.12 inches Hg (1020.1 mb)
[Sea-level pressure: 1019.8 mb]
Winds: from the SE (140 degrees) at 13 MPH (11 knots; 5.7 m/s)
Visibility: 10 or more miles (16+ km)
Ceiling: at least 12,000 feet AGL
Clouds: sky clear below 12,000 feet AGL
Present Weather: automated observation with no human augmentation;
there may or may not be significant weather present at this time
KFPR 290953Z AUTO 14011KT 10SM CLR 26/22 A3012 RMK AO2 SLP198 T02560217

Conditions at: KFPR observed 29 April 2017  08:53 UTC
Temperature: 25.6°C (78°F)
Dewpoint: 22.2°C (72°F) [RH = 82%]
Pressure (altimeter): 30.11 inches Hg (1019.7 mb)
[Sea-level pressure: 1019.6 mb]
Winds: from the SE (130 degrees) at 13 MPH (11 knots; 5.7 m/s)
Visibility: 10 or more miles (16+ km)
Ceiling: at least 12,000 feet AGL
Clouds: sky clear below 12,000 feet AGL
Present Weather: automated observation with no human augmentation;
there may or may not be significant weather present at this time
KFPR 290853Z AUTO 13011KT 10SM CLR 26/22 A3011 RMK AO2 SLP196 T02560222 53001

Conditions at: KFPR observed 29 April 2017  07:53 UTC
Temperature: 25.6°C (78°F)
Dewpoint: 22.2°C (72°F) [RH = 82%]
Pressure (altimeter): 30.11 inches Hg (1019.7 mb)
[Sea-level pressure: 1019.4 mb]
Winds: from the SE (130 degrees) at 13 MPH (11 knots; 5.7 m/s)
Visibility: 10 or more miles (16+ km)
Ceiling: at least 12,000 feet AGL
Clouds: sky clear below 12,000 feet AGL
Present Weather: automated observation with no human augmentation;
there may or may not be significant weather present at this time
KFPR 290753Z AUTO 13011KT 10SM CLR 26/22 A3011 RMK AO2 SLP194 T02560222

Conditions at: KFPR observed 29 April 2017  06:53 UTC
Temperature: 26.1°C (79°F)
Dewpoint: 22.8°C (73°F) [RH = 82%]
Pressure (altimeter): 30.11 inches Hg (1019.7 mb)
[Sea-level pressure: 1019.4 mb]
Winds: from the SE (130 degrees) at 13 MPH (11 knots; 5.7 m/s)
Visibility: 10 or more miles (16+ km)
Ceiling: at least 12,000 feet AGL
Clouds: sky clear below 12,000 feet AGL
Present Weather: no significant weather observed at this time
KFPR 290653Z 13011KT 10SM CLR 26/23 A3011 RMK AO2 SLP194 T02610228

Conditions at: KFPR observed 29 April 2017  05:53 UTC
Temperature: 26.1°C (79°F)
Dewpoint: 22.8°C (73°F) [RH = 82%]
Pressure (altimeter): 30.11 inches Hg (1019.7 mb)
[Sea-level pressure: 1019.4 mb]
Winds: from the ESE (120 degrees) at 15 MPH (13 knots; 6.8 m/s)
Visibility: 10 or more miles (16+ km)
Ceiling: at least 12,000 feet AGL
Clouds: sky clear below 12,000 feet AGL
Present Weather: no significant weather observed at this time
KFPR 290553Z 12013KT 10SM CLR 26/23 A3011 RMK AO2 SLP194 T02610228 10272 20261 58007

Conditions at: KFPR observed 29 April 2017  04:53 UTC
Temperature: 26.7°C (80°F)
Dewpoint: 22.8°C (73°F) [RH = 79%]
Pressure (altimeter): 30.12 inches Hg (1020.1 mb)
[Sea-level pressure: 1019.8 mb]
Winds: from the SE (140 degrees) at 16 MPH (14 knots; 7.3 m/s)
Visibility: 10 or more miles (16+ km)
Ceiling: at least 12,000 feet AGL
Clouds: sky clear below 12,000 feet AGL
Present Weather: no significant weather observed at this time
KFPR 290453Z 14014KT 10SM CLR 27/23 A3012 RMK AO2 SLP198 T02670228 403110244

Conditions at: KFPR observed 29 April 2017  03:53 UTC
Temperature: 26.7°C (80°F)
Dewpoint: 23.3°C (74°F) [RH = 82%]
Pressure (altimeter): 30.13 inches Hg (1020.4 mb)
[Sea-level pressure: 1020.2 mb]
Winds: from the SE (140 degrees) at 15 MPH (13 knots; 6.8 m/s)
Visibility: 10 or more miles (16+ km)
Ceiling: at least 12,000 feet AGL
Clouds: sky clear below 12,000 feet AGL
Present Weather: no significant weather observed at this time
KFPR 290353Z 14013KT 10SM CLR 27/23 A3013 RMK AO2 SLP202 T02670233

Conditions at: KFPR observed 29 April 2017  02:53 UTC
Temperature: 26.7°C (80°F)
Dewpoint: 23.3°C (74°F) [RH = 82%]
Pressure (altimeter): 30.13 inches Hg (1020.4 mb)
[Sea-level pressure: 1020.1 mb]
Winds: from the SE (130 degrees) at 12 MPH (10 knots; 5.2 m/s)
Visibility: 10 or more miles (16+ km)
Ceiling: at least 12,000 feet AGL
Clouds: sky clear below 12,000 feet AGL
Present Weather: no significant weather observed at this time
KFPR 290253Z 13010KT 10SM CLR 27/23 A3013 RMK AO2 SLP201 T02670233 51014

Conditions at: KFPR observed 29 April 2017  01:53 UTC
Temperature: 26.7°C (80°F)
Dewpoint: 23.3°C (74°F) [RH = 82%]
Pressure (altimeter): 30.12 inches Hg (1020.1 mb)
[Sea-level pressure: 1019.8 mb]
Winds: from the SE (130 degrees) at 12 MPH (10 knots; 5.2 m/s)
Visibility: 10 or more miles (16+ km)
Ceiling: at least 12,000 feet AGL
Clouds: sky clear below 12,000 feet AGL
Present Weather: no significant weather observed at this time
KFPR 290153Z 13010KT 10SM CLR 27/23 A3012 RMK AO2 SLP198 T02670233

Conditions at: KFPR observed 29 April 2017  00:53 UTC
Temperature: 26.7°C (80°F)
Dewpoint: 22.8°C (73°F) [RH = 79%]
Pressure (altimeter): 30.10 inches Hg (1019.4 mb)
[Sea-level pressure: 1019.2 mb]
Winds: from the ESE (120 degrees) at 12 MPH (10 knots; 5.2 m/s)
Visibility: 10 or more miles (16+ km)
Ceiling: at least 12,000 feet AGL
Clouds: sky clear below 12,000 feet AGL
Present Weather: no significant weather observed at this time
KFPR 290053Z 12010KT 10SM CLR 27/23 A3010 RMK AO2 SLP192 T02670228

Conditions at: KFPR observed 28 April 2017  23:53 UTC
Temperature: 27.2°C (81°F)
Dewpoint: 22.8°C (73°F) [RH = 77%]
Pressure (altimeter): 30.09 inches Hg (1019.0 mb)
[Sea-level pressure: 1018.7 mb]
Winds: from the ESE (120 degrees) at 15 MPH (13 knots; 6.8 m/s)
Visibility: 10 or more miles (16+ km)
Ceiling: at least 12,000 feet AGL
Clouds: sky clear below 12,000 feet AGL
Present Weather: no significant weather observed at this time
KFPR 282353Z 12013KT 10SM CLR 27/23 A3009 RMK AO2 SLP187 T02720228 10311 20272 53006

Conditions at: KFPR observed 28 April 2017  22:53 UTC
Temperature: 28.3°C (83°F)
Dewpoint: 22.8°C (73°F) [RH = 72%]
Pressure (altimeter): 30.08 inches Hg (1018.7 mb)
[Sea-level pressure: 1018.4 mb]
Winds: from the ESE (120 degrees) at 16 MPH (14 knots; 7.3 m/s)
Visibility: 10 or more miles (16+ km)
Ceiling: at least 12,000 feet AGL
Clouds: few clouds at 2000 feet AGL
Present Weather: no significant weather observed at this time
KFPR 282253Z 12014KT 10SM FEW020 28/23 A3008 RMK AO2 SLP184 T02830228

Conditions at: KFPR observed 28 April 2017  21:53 UTC
Temperature: 28.9°C (84°F)
Dewpoint: 22.8°C (73°F) [RH = 70%]
Pressure (altimeter): 30.07 inches Hg (1018.4 mb)
[Sea-level pressure: 1018.3 mb]
Winds: from the SE (140 degrees) at 20 MPH (17 knots; 8.8 m/s)
Visibility: 10 or more miles (16+ km)
Ceiling: at least 12,000 feet AGL
Clouds: sky clear below 12,000 feet AGL
Present Weather: no significant weather observed at this time
KFPR 282153Z 14017KT 10SM CLR 29/23 A3007 RMK AO2 SLP183 T02890228

Conditions at: KFPR observed 28 April 2017  20:53 UTC
Temperature: 30.0°C (86°F)
Dewpoint: 22.8°C (73°F) [RH = 65%]
Pressure (altimeter): 30.07 inches Hg (1018.4 mb)
[Sea-level pressure: 1018.1 mb]
Winds: from the SE (140 degrees) at 20 MPH (17 knots; 8.8 m/s)
Visibility: 10 or more miles (16+ km)
Ceiling: at least 12,000 feet AGL
Clouds: sky clear below 12,000 feet AGL
Present Weather: no significant weather observed at this time
KFPR 282053Z 14017KT 10SM CLR 30/23 A3007 RMK AO2 SLP181 T03000228 56009

Conditions at: KFPR observed 28 April 2017  19:53 UTC
Temperature: 30.0°C (86°F)
Dewpoint: 22.8°C (73°F) [RH = 65%]
Pressure (altimeter): 30.07 inches Hg (1018.4 mb)
[Sea-level pressure: 1018.3 mb]
Winds: from the ESE (120 degrees) at 20 MPH (17 knots; 8.8 m/s)
Visibility: 10 or more miles (16+ km)
Ceiling: at least 12,000 feet AGL
Clouds: sky clear below 12,000 feet AGL
Present Weather: no significant weather observed at this time
KFPR 281953Z 12017KT 10SM CLR 30/23 A3007 RMK AO2 SLP183 T03000228

Conditions at: KFPR observed 28 April 2017  18:53 UTC
Temperature: 30.6°C (87°F)
Dewpoint: 22.8°C (73°F) [RH = 63%]
Pressure (altimeter): 30.08 inches Hg (1018.7 mb)
[Sea-level pressure: 1018.5 mb]
Winds: from the SE (130 degrees) at 20 MPH (17 knots; 8.8 m/s)
Visibility: 10 or more miles (16+ km)
Ceiling: at least 12,000 feet AGL
Clouds: few clouds at 2100 feet AGL
Present Weather: no significant weather observed at this time
KFPR 281853Z 13017KT 10SM FEW021 31/23 A3008 RMK AO2 SLP185 T03060228

Conditions at: KFPR observed 28 April 2017  17:53 UTC
Temperature: 30.6°C (87°F)
Dewpoint: 22.8°C (73°F) [RH = 63%]
Pressure (altimeter): 30.10 inches Hg (1019.4 mb)
[Sea-level pressure: 1019.0 mb]
Winds: from the SE (130 degrees) at 21 MPH (18 knots; 9.4 m/s)
gusting to 26 MPH (23 knots; 12.0 m/s)
Visibility: 10 or more miles (16+ km)
Ceiling: at least 12,000 feet AGL
Clouds: sky clear below 12,000 feet AGL
Present Weather: no significant weather observed at this time
KFPR 281753Z 13018G23KT 10SM CLR 31/23 A3010 RMK AO2 SLP190 T03060228 10311 20256 58002

Conditions at: KFPR observed 28 April 2017  16:53 UTC
Temperature: 30.6°C (87°F)
Dewpoint: 23.3°C (74°F) [RH = 65%]
Pressure (altimeter): 30.10 inches Hg (1019.4 mb)
[Sea-level pressure: 1019.3 mb]
Winds: from the SE (130 degrees) at 18 MPH (16 knots; 8.3 m/s)
Visibility: 10 or more miles (16+ km)
Ceiling: at least 12,000 feet AGL
Clouds: few clouds at 2000 feet AGL
Present Weather: no significant weather observed at this time
KFPR 281653Z 13016KT 10SM FEW020 31/23 A3010 RMK AO2 SLP193 T03060233

Conditions at: KFPR observed 28 April 2017  15:53 UTC
Temperature: 30.6°C (87°F)
Dewpoint: 22.2°C (72°F) [RH = 61%]
Pressure (altimeter): 30.11 inches Hg (1019.7 mb)
[Sea-level pressure: 1019.4 mb]
Winds: from the SE (140 degrees) at 16 MPH (14 knots; 7.3 m/s)
Visibility: 10 or more miles (16+ km)
Ceiling: at least 12,000 feet AGL
Clouds: sky clear below 12,000 feet AGL
Present Weather: no significant weather observed at this time
KFPR 281553Z 14014KT 10SM CLR 31/22 A3011 RMK AO2 SLP194 T03060222